sensor_id;sensor_type;location;lat;lon;timestamp;P1;durP1;ratioP1;P2;durP2;ratioP2
34296;SDS011;20564;42.902;25.336;2023-04-03T00:02:02;3.20;;;0.95;;
34296;SDS011;20564;42.902;25.336;2023-04-03T00:04:30;4.03;;;1.20;;
34296;SDS011;20564;42.902;25.336;2023-04-03T00:07:00;3.42;;;1.23;;
34296;SDS011;20564;42.902;25.336;2023-04-03T00:09:27;3.60;;;1.23;;
34296;SDS011;20564;42.902;25.336;2023-04-03T00:11:57;3.90;;;1.25;;
34296;SDS011;20564;42.902;25.336;2023-04-03T00:14:24;4.93;;;1.23;;
34296;SDS011;20564;42.902;25.336;2023-04-03T00:16:51;4.70;;;1.47;;
34296;SDS011;20564;42.902;25.336;2023-04-03T00:19:18;4.60;;;1.13;;
34296;SDS011;20564;42.902;25.336;2023-04-03T00:21:54;4.40;;;1.20;;
34296;SDS011;20564;42.902;25.336;2023-04-03T00:24:22;4.78;;;1.30;;
34296;SDS011;20564;42.902;25.336;2023-04-03T00:26:49;1.70;;;0.97;;
34296;SDS011;20564;42.902;25.336;2023-04-03T00:29:16;4.70;;;1.10;;
34296;SDS011;20564;42.902;25.336;2023-04-03T00:31:43;3.72;;;1.30;;
34296;SDS011;20564;42.902;25.336;2023-04-03T00:34:10;4.30;;;1.60;;
34296;SDS011;20564;42.902;25.336;2023-04-03T00:36:38;3.08;;;1.50;;
34296;SDS011;20564;42.902;25.336;2023-04-03T00:39:05;3.92;;;1.40;;
34296;SDS011;20564;42.902;25.336;2023-04-03T00:41:32;3.25;;;1.33;;
34296;SDS011;20564;42.902;25.336;2023-04-03T00:44:00;3.15;;;1.30;;
34296;SDS011;20564;42.902;25.336;2023-04-03T00:46:47;3.83;;;1.38;;
34296;SDS011;20564;42.902;25.336;2023-04-03T00:49:15;4.75;;;1.38;;
34296;SDS011;20564;42.902;25.336;2023-04-03T00:51:46;4.20;;;1.67;;
34296;SDS011;20564;42.902;25.336;2023-04-03T00:54:13;5.03;;;1.60;;
34296;SDS011;20564;42.902;25.336;2023-04-03T00:56:41;1.83;;;1.10;;
34296;SDS011;20564;42.902;25.336;2023-04-03T00:59:10;3.63;;;1.40;;
34296;SDS011;20564;42.902;25.336;2023-04-03T01:01:50;5.72;;;1.60;;
34296;SDS011;20564;42.902;25.336;2023-04-03T01:07:07;1.83;;;1.00;;
34296;SDS011;20564;42.902;25.336;2023-04-03T01:09:56;4.03;;;1.35;;
34296;SDS011;20564;42.902;25.336;2023-04-03T01:12:33;5.32;;;1.00;;
34296;SDS011;20564;42.902;25.336;2023-04-03T01:15:10;3.20;;;1.10;;
34296;SDS011;20564;42.902;25.336;2023-04-03T01:17:56;3.85;;;1.40;;
34296;SDS011;20564;42.902;25.336;2023-04-03T01:26:55;4.03;;;1.00;;
34296;SDS011;20564;42.902;25.336;2023-04-03T01:29:34;3.17;;;1.00;;
34296;SDS011;20564;42.902;25.336;2023-04-03T01:34:36;2.05;;;1.00;;
34296;SDS011;20564;42.902;25.336;2023-04-03T01:37:12;2.47;;;1.00;;
34296;SDS011;20564;42.902;25.336;2023-04-03T01:39:52;3.10;;;1.13;;
34296;SDS011;20564;42.902;25.336;2023-04-03T01:42:47;3.72;;;1.10;;
34296;SDS011;20564;42.902;25.336;2023-04-03T01:48:57;3.88;;;1.08;;
34296;SDS011;20564;42.902;25.336;2023-04-03T01:51:28;2.75;;;0.90;;
34296;SDS011;20564;42.902;25.336;2023-04-03T01:54:04;5.30;;;1.15;;
34296;SDS011;20564;42.902;25.336;2023-04-03T01:56:43;3.33;;;1.30;;
34296;SDS011;20564;42.902;25.336;2023-04-03T01:59:35;3.00;;;0.90;;
34296;SDS011;20564;42.902;25.336;2023-04-03T02:02:26;2.92;;;1.30;;
34296;SDS011;20564;42.902;25.336;2023-04-03T02:04:56;3.50;;;1.15;;
34296;SDS011;20564;42.902;25.336;2023-04-03T02:07:33;2.97;;;1.00;;
34296;SDS011;20564;42.902;25.336;2023-04-03T02:10:10;3.95;;;1.20;;
34296;SDS011;20564;42.902;25.336;2023-04-03T02:12:47;4.25;;;1.10;;
34296;SDS011;20564;42.902;25.336;2023-04-03T02:18:59;2.53;;;1.00;;
34296;SDS011;20564;42.902;25.336;2023-04-03T02:21:27;2.78;;;0.98;;
34296;SDS011;20564;42.902;25.336;2023-04-03T02:23:55;1.75;;;0.98;;
34296;SDS011;20564;42.902;25.336;2023-04-03T02:27:03;2.22;;;1.00;;
34296;SDS011;20564;42.902;25.336;2023-04-03T02:29:31;2.50;;;1.10;;
34296;SDS011;20564;42.902;25.336;2023-04-03T02:33:02;2.35;;;1.15;;
34296;SDS011;20564;42.902;25.336;2023-04-03T02:35:33;2.35;;;1.00;;
34296;SDS011;20564;42.902;25.336;2023-04-03T02:38:26;3.17;;;1.27;;
34296;SDS011;20564;42.902;25.336;2023-04-03T02:44:31;4.28;;;1.35;;
34296;SDS011;20564;42.902;25.336;2023-04-03T02:47:38;4.20;;;1.67;;
34296;SDS011;20564;42.902;25.336;2023-04-03T02:50:09;4.20;;;1.27;;
34296;SDS011;20564;42.902;25.336;2023-04-03T02:52:46;2.35;;;1.08;;
34296;SDS011;20564;42.902;25.336;2023-04-03T02:55:35;4.78;;;1.38;;
34296;SDS011;20564;42.902;25.336;2023-04-03T02:58:02;5.15;;;1.50;;
34296;SDS011;20564;42.902;25.336;2023-04-03T03:00:52;5.75;;;1.70;;
34296;SDS011;20564;42.902;25.336;2023-04-03T03:03:25;4.88;;;1.58;;
34296;SDS011;20564;42.902;25.336;2023-04-03T03:06:30;5.65;;;1.77;;
34296;SDS011;20564;42.902;25.336;2023-04-03T03:09:25;4.97;;;1.35;;
34296;SDS011;20564;42.902;25.336;2023-04-03T03:11:56;5.82;;;1.70;;
34296;SDS011;20564;42.902;25.336;2023-04-03T03:14:26;4.63;;;1.70;;
34296;SDS011;20564;42.902;25.336;2023-04-03T03:16:54;4.00;;;1.38;;
34296;SDS011;20564;42.902;25.336;2023-04-03T03:23:02;3.28;;;1.38;;
34296;SDS011;20564;42.902;25.336;2023-04-03T03:26:06;3.67;;;1.52;;
34296;SDS011;20564;42.902;25.336;2023-04-03T03:28:51;5.05;;;1.30;;
34296;SDS011;20564;42.902;25.336;2023-04-03T03:31:23;2.47;;;1.27;;
34296;SDS011;20564;42.902;25.336;2023-04-03T03:34:13;4.53;;;1.25;;
34296;SDS011;20564;42.902;25.336;2023-04-03T03:36:40;2.33;;;1.15;;
34296;SDS011;20564;42.902;25.336;2023-04-03T03:39:07;3.20;;;1.25;;
34296;SDS011;20564;42.902;25.336;2023-04-03T03:41:34;2.92;;;1.05;;
34296;SDS011;20564;42.902;25.336;2023-04-03T03:44:02;1.95;;;1.13;;
34296;SDS011;20564;42.902;25.336;2023-04-03T03:46:29;2.53;;;1.15;;
34296;SDS011;20564;42.902;25.336;2023-04-03T03:48:57;2.50;;;0.80;;
34296;SDS011;20564;42.902;25.336;2023-04-03T03:51:24;3.07;;;1.20;;
34296;SDS011;20564;42.902;25.336;2023-04-03T03:53:51;2.63;;;1.20;;
34296;SDS011;20564;42.902;25.336;2023-04-03T03:56:45;2.67;;;1.15;;
34296;SDS011;20564;42.902;25.336;2023-04-03T03:59:12;1.80;;;0.80;;
34296;SDS011;20564;42.902;25.336;2023-04-03T04:01:40;3.15;;;1.20;;
34296;SDS011;20564;42.902;25.336;2023-04-03T04:04:07;3.50;;;1.48;;
34296;SDS011;20564;42.902;25.336;2023-04-03T04:06:34;1.88;;;0.85;;
34296;SDS011;20564;42.902;25.336;2023-04-03T04:09:01;2.47;;;1.10;;
34296;SDS011;20564;42.902;25.336;2023-04-03T04:11:28;4.47;;;1.35;;
34296;SDS011;20564;42.902;25.336;2023-04-03T04:13:54;6.53;;;1.67;;
34296;SDS011;20564;42.902;25.336;2023-04-03T04:16:21;4.38;;;1.38;;
34296;SDS011;20564;42.902;25.336;2023-04-03T04:18:49;3.13;;;1.55;;
34296;SDS011;20564;42.902;25.336;2023-04-03T04:21:16;2.95;;;1.23;;
34296;SDS011;20564;42.902;25.336;2023-04-03T04:23:43;5.47;;;1.33;;
34296;SDS011;20564;42.902;25.336;2023-04-03T04:26:13;4.18;;;1.30;;
34296;SDS011;20564;42.902;25.336;2023-04-03T04:28:41;3.53;;;1.40;;
34296;SDS011;20564;42.902;25.336;2023-04-03T04:31:07;5.55;;;1.92;;
34296;SDS011;20564;42.902;25.336;2023-04-03T04:33:35;3.47;;;1.27;;
34296;SDS011;20564;42.902;25.336;2023-04-03T04:36:02;4.72;;;1.40;;
34296;SDS011;20564;42.902;25.336;2023-04-03T04:38:29;2.28;;;1.08;;
34296;SDS011;20564;42.902;25.336;2023-04-03T04:40:56;4.90;;;1.42;;
34296;SDS011;20564;42.902;25.336;2023-04-03T04:43:26;3.95;;;1.50;;
34296;SDS011;20564;42.902;25.336;2023-04-03T04:46:06;3.90;;;1.30;;
34296;SDS011;20564;42.902;25.336;2023-04-03T04:48:36;3.05;;;1.40;;
34296;SDS011;20564;42.902;25.336;2023-04-03T04:51:03;3.25;;;1.40;;
34296;SDS011;20564;42.902;25.336;2023-04-03T04:53:30;3.10;;;1.10;;
34296;SDS011;20564;42.902;25.336;2023-04-03T04:56:01;4.07;;;1.27;;
34296;SDS011;20564;42.902;25.336;2023-04-03T04:58:29;2.15;;;1.00;;
34296;SDS011;20564;42.902;25.336;2023-04-03T05:00:59;3.10;;;1.00;;
34296;SDS011;20564;42.902;25.336;2023-04-03T05:03:29;6.07;;;1.30;;
34296;SDS011;20564;42.902;25.336;2023-04-03T05:05:56;5.03;;;2.00;;
34296;SDS011;20564;42.902;25.336;2023-04-03T05:08:24;5.32;;;1.73;;
34296;SDS011;20564;42.902;25.336;2023-04-03T05:10:53;3.78;;;1.80;;
34296;SDS011;20564;42.902;25.336;2023-04-03T05:13:21;6.97;;;1.80;;
34296;SDS011;20564;42.902;25.336;2023-04-03T05:15:48;5.33;;;2.23;;
34296;SDS011;20564;42.902;25.336;2023-04-03T05:18:19;3.17;;;1.17;;
34296;SDS011;20564;42.902;25.336;2023-04-03T05:20:47;1.83;;;1.17;;
34296;SDS011;20564;42.902;25.336;2023-04-03T05:23:20;3.55;;;1.10;;
34296;SDS011;20564;42.902;25.336;2023-04-03T05:25:53;1.90;;;0.98;;
34296;SDS011;20564;42.902;25.336;2023-04-03T05:28:22;3.80;;;1.50;;
34296;SDS011;20564;42.902;25.336;2023-04-03T05:30:53;3.95;;;1.35;;
34296;SDS011;20564;42.902;25.336;2023-04-03T05:33:21;3.55;;;1.17;;
34296;SDS011;20564;42.902;25.336;2023-04-03T05:35:53;5.43;;;1.40;;
34296;SDS011;20564;42.902;25.336;2023-04-03T05:38:34;3.30;;;1.52;;
34296;SDS011;20564;42.902;25.336;2023-04-03T05:41:01;5.72;;;2.22;;
34296;SDS011;20564;42.902;25.336;2023-04-03T05:43:28;4.70;;;1.70;;
34296;SDS011;20564;42.902;25.336;2023-04-03T05:45:55;3.97;;;1.67;;
34296;SDS011;20564;42.902;25.336;2023-04-03T05:48:22;5.28;;;1.90;;
34296;SDS011;20564;42.902;25.336;2023-04-03T05:50:49;6.13;;;2.03;;
34296;SDS011;20564;42.902;25.336;2023-04-03T05:53:21;6.13;;;2.20;;
34296;SDS011;20564;42.902;25.336;2023-04-03T05:55:51;8.75;;;2.30;;
34296;SDS011;20564;42.902;25.336;2023-04-03T05:58:18;5.72;;;2.38;;
34296;SDS011;20564;42.902;25.336;2023-04-03T06:00:45;5.85;;;2.40;;
34296;SDS011;20564;42.902;25.336;2023-04-03T06:03:12;6.72;;;2.10;;
34296;SDS011;20564;42.902;25.336;2023-04-03T06:05:39;7.20;;;2.78;;
34296;SDS011;20564;42.902;25.336;2023-04-03T06:08:06;6.77;;;2.33;;
34296;SDS011;20564;42.902;25.336;2023-04-03T06:10:42;5.30;;;2.30;;
34296;SDS011;20564;42.902;25.336;2023-04-03T06:13:13;5.18;;;2.05;;
34296;SDS011;20564;42.902;25.336;2023-04-03T06:15:45;5.05;;;1.98;;
34296;SDS011;20564;42.902;25.336;2023-04-03T06:18:20;5.80;;;1.38;;
34296;SDS011;20564;42.902;25.336;2023-04-03T06:20:53;3.85;;;1.58;;
34296;SDS011;20564;42.902;25.336;2023-04-03T06:23:20;5.07;;;1.65;;
34296;SDS011;20564;42.902;25.336;2023-04-03T06:25:47;5.53;;;2.20;;
34296;SDS011;20564;42.902;25.336;2023-04-03T06:28:14;8.35;;;3.28;;
34296;SDS011;20564;42.902;25.336;2023-04-03T06:30:41;7.78;;;3.28;;
34296;SDS011;20564;42.902;25.336;2023-04-03T06:33:15;7.30;;;3.35;;
34296;SDS011;20564;42.902;25.336;2023-04-03T06:35:58;7.05;;;2.55;;
34296;SDS011;20564;42.902;25.336;2023-04-03T06:38:25;9.07;;;2.70;;
34296;SDS011;20564;42.902;25.336;2023-04-03T06:40:56;7.88;;;2.88;;
34296;SDS011;20564;42.902;25.336;2023-04-03T06:43:24;6.80;;;2.30;;
34296;SDS011;20564;42.902;25.336;2023-04-03T06:45:51;6.80;;;2.40;;
34296;SDS011;20564;42.902;25.336;2023-04-03T06:48:18;8.35;;;1.92;;
34296;SDS011;20564;42.902;25.336;2023-04-03T06:50:45;6.43;;;1.97;;
34296;SDS011;20564;42.902;25.336;2023-04-03T06:53:12;7.97;;;2.47;;
34296;SDS011;20564;42.902;25.336;2023-04-03T06:55:39;6.50;;;1.90;;
34296;SDS011;20564;42.902;25.336;2023-04-03T06:58:07;4.25;;;1.80;;
34296;SDS011;20564;42.902;25.336;2023-04-03T07:00:34;5.70;;;1.90;;
34296;SDS011;20564;42.902;25.336;2023-04-03T07:03:01;12.65;;;2.38;;
34296;SDS011;20564;42.902;25.336;2023-04-03T07:05:28;7.10;;;1.97;;
34296;SDS011;20564;42.902;25.336;2023-04-03T07:07:55;5.53;;;2.03;;
34296;SDS011;20564;42.902;25.336;2023-04-03T07:10:22;5.18;;;2.13;;
34296;SDS011;20564;42.902;25.336;2023-04-03T07:12:49;5.40;;;2.20;;
34296;SDS011;20564;42.902;25.336;2023-04-03T07:15:19;4.75;;;2.20;;
34296;SDS011;20564;42.902;25.336;2023-04-03T07:17:46;5.40;;;2.50;;
34296;SDS011;20564;42.902;25.336;2023-04-03T07:20:13;6.43;;;2.40;;
34296;SDS011;20564;42.902;25.336;2023-04-03T07:22:41;7.18;;;2.40;;
34296;SDS011;20564;42.902;25.336;2023-04-03T07:25:08;5.97;;;2.13;;
34296;SDS011;20564;42.902;25.336;2023-04-03T07:27:37;10.05;;;2.38;;
34296;SDS011;20564;42.902;25.336;2023-04-03T07:30:04;5.03;;;2.03;;
34296;SDS011;20564;42.902;25.336;2023-04-03T07:32:34;14.43;;;2.78;;
34296;SDS011;20564;42.902;25.336;2023-04-03T07:35:01;9.73;;;2.25;;
34296;SDS011;20564;42.902;25.336;2023-04-03T07:37:38;6.90;;;2.20;;
34296;SDS011;20564;42.902;25.336;2023-04-03T07:40:06;12.00;;;2.33;;
34296;SDS011;20564;42.902;25.336;2023-04-03T07:42:35;14.60;;;2.60;;
34296;SDS011;20564;42.902;25.336;2023-04-03T07:45:03;5.32;;;1.55;;
34296;SDS011;20564;42.902;25.336;2023-04-03T07:47:30;5.68;;;1.85;;
34296;SDS011;20564;42.902;25.336;2023-04-03T07:49:57;4.72;;;2.13;;
34296;SDS011;20564;42.902;25.336;2023-04-03T07:52:25;6.38;;;2.20;;
34296;SDS011;20564;42.902;25.336;2023-04-03T07:54:56;7.55;;;2.42;;
34296;SDS011;20564;42.902;25.336;2023-04-03T07:57:23;8.60;;;2.40;;
34296;SDS011;20564;42.902;25.336;2023-04-03T07:59:51;6.10;;;1.67;;
34296;SDS011;20564;42.902;25.336;2023-04-03T08:02:21;2.13;;;0.88;;
34296;SDS011;20564;42.902;25.336;2023-04-03T08:04:48;1.80;;;0.52;;
34296;SDS011;20564;42.902;25.336;2023-04-03T08:07:18;1.33;;;0.43;;
34296;SDS011;20564;42.902;25.336;2023-04-03T08:09:45;2.53;;;0.80;;
34296;SDS011;20564;42.902;25.336;2023-04-03T08:12:11;1.08;;;0.65;;
34296;SDS011;20564;42.902;25.336;2023-04-03T08:14:50;3.30;;;0.45;;
34296;SDS011;20564;42.902;25.336;2023-04-03T08:17:17;1.55;;;0.57;;
34296;SDS011;20564;42.902;25.336;2023-04-03T08:19:44;1.80;;;0.90;;
34296;SDS011;20564;42.902;25.336;2023-04-03T08:22:11;2.75;;;1.15;;
34296;SDS011;20564;42.902;25.336;2023-04-03T08:24:37;2.10;;;1.07;;
34296;SDS011;20564;42.902;25.336;2023-04-03T08:27:21;3.30;;;1.02;;
34296;SDS011;20564;42.902;25.336;2023-04-03T08:29:48;9.35;;;2.00;;
34296;SDS011;20564;42.902;25.336;2023-04-03T08:32:16;3.50;;;1.02;;
34296;SDS011;20564;42.902;25.336;2023-04-03T08:34:42;1.77;;;0.70;;
34296;SDS011;20564;42.902;25.336;2023-04-03T08:37:10;3.88;;;0.90;;
34296;SDS011;20564;42.902;25.336;2023-04-03T08:39:48;1.80;;;0.80;;
34296;SDS011;20564;42.902;25.336;2023-04-03T08:42:41;3.60;;;1.20;;
34296;SDS011;20564;42.902;25.336;2023-04-03T08:45:27;1.23;;;0.60;;
34296;SDS011;20564;42.902;25.336;2023-04-03T08:48:15;1.55;;;0.50;;
34296;SDS011;20564;42.902;25.336;2023-04-03T08:50:53;1.63;;;0.40;;
34296;SDS011;20564;42.902;25.336;2023-04-03T08:53:29;1.20;;;0.63;;
34296;SDS011;20564;42.902;25.336;2023-04-03T08:56:08;1.98;;;0.60;;
34296;SDS011;20564;42.902;25.336;2023-04-03T08:58:50;2.70;;;0.50;;
34296;SDS011;20564;42.902;25.336;2023-04-03T09:04:11;1.20;;;0.50;;
34296;SDS011;20564;42.902;25.336;2023-04-03T09:06:48;1.60;;;0.70;;
34296;SDS011;20564;42.902;25.336;2023-04-03T09:14:37;2.25;;;0.68;;
34296;SDS011;20564;42.902;25.336;2023-04-03T09:17:15;2.22;;;0.55;;
34296;SDS011;20564;42.902;25.336;2023-04-03T09:22:50;1.02;;;0.77;;
34296;SDS011;20564;42.902;25.336;2023-04-03T09:25:24;3.25;;;0.50;;
34296;SDS011;20564;42.902;25.336;2023-04-03T09:27:57;7.18;;;1.13;;
34296;SDS011;20564;42.902;25.336;2023-04-03T09:30:26;0.80;;;0.57;;
34296;SDS011;20564;42.902;25.336;2023-04-03T09:32:54;5.18;;;0.95;;
34296;SDS011;20564;42.902;25.336;2023-04-03T09:35:29;1.55;;;0.40;;
34296;SDS011;20564;42.902;25.336;2023-04-03T09:38:15;0.93;;;0.40;;
34296;SDS011;20564;42.902;25.336;2023-04-03T09:44:25;1.15;;;0.45;;
34296;SDS011;20564;42.902;25.336;2023-04-03T09:47:02;1.05;;;0.50;;
34296;SDS011;20564;42.902;25.336;2023-04-03T09:52:42;0.93;;;0.50;;
34296;SDS011;20564;42.902;25.336;2023-04-03T09:55:14;0.82;;;0.28;;
34296;SDS011;20564;42.902;25.336;2023-04-03T09:57:45;3.63;;;0.80;;
34296;SDS011;20564;42.902;25.336;2023-04-03T10:00:20;0.88;;;0.60;;
34296;SDS011;20564;42.902;25.336;2023-04-03T10:02:54;0.52;;;0.40;;
34296;SDS011;20564;42.902;25.336;2023-04-03T10:05:30;1.88;;;0.52;;
34296;SDS011;20564;42.902;25.336;2023-04-03T10:08:34;1.88;;;0.40;;
34296;SDS011;20564;42.902;25.336;2023-04-03T10:11:08;0.77;;;0.30;;
34296;SDS011;20564;42.902;25.336;2023-04-03T10:13:50;0.95;;;0.45;;
34296;SDS011;20564;42.902;25.336;2023-04-03T10:16:38;0.50;;;0.30;;
34296;SDS011;20564;42.902;25.336;2023-04-03T10:21:48;0.50;;;0.30;;
34296;SDS011;20564;42.902;25.336;2023-04-03T10:24:30;0.30;;;0.15;;
34296;SDS011;20564;42.902;25.336;2023-04-03T10:27:37;0.90;;;0.40;;
34296;SDS011;20564;42.902;25.336;2023-04-03T10:32:52;0.55;;;0.30;;
34296;SDS011;20564;42.902;25.336;2023-04-03T10:38:35;0.55;;;0.30;;
34296;SDS011;20564;42.902;25.336;2023-04-03T10:41:14;1.52;;;0.40;;
34296;SDS011;20564;42.902;25.336;2023-04-03T10:46:37;4.78;;;0.50;;
34296;SDS011;20564;42.902;25.336;2023-04-03T10:57:23;1.25;;;0.40;;
34296;SDS011;20564;42.902;25.336;2023-04-03T10:59:59;0.52;;;0.30;;
34296;SDS011;20564;42.902;25.336;2023-04-03T11:02:38;0.38;;;0.28;;
34296;SDS011;20564;42.902;25.336;2023-04-03T11:05:17;1.10;;;0.40;;
34296;SDS011;20564;42.902;25.336;2023-04-03T11:07:53;1.00;;;0.30;;
34296;SDS011;20564;42.902;25.336;2023-04-03T11:10:24;0.63;;;0.20;;
34296;SDS011;20564;42.902;25.336;2023-04-03T11:13:06;1.00;;;0.28;;
34296;SDS011;20564;42.902;25.336;2023-04-03T11:15:39;0.50;;;0.30;;
34296;SDS011;20564;42.902;25.336;2023-04-03T11:18:15;0.38;;;0.20;;
34296;SDS011;20564;42.902;25.336;2023-04-03T11:20:50;1.13;;;0.60;;
34296;SDS011;20564;42.902;25.336;2023-04-03T11:23:36;1.48;;;0.50;;
34296;SDS011;20564;42.902;25.336;2023-04-03T11:26:19;0.60;;;0.40;;
34296;SDS011;20564;42.902;25.336;2023-04-03T11:28:52;0.63;;;0.25;;
34296;SDS011;20564;42.902;25.336;2023-04-03T11:34:05;0.60;;;0.38;;
34296;SDS011;20564;42.902;25.336;2023-04-03T11:36:47;2.05;;;0.30;;
34296;SDS011;20564;42.902;25.336;2023-04-03T11:39:33;1.17;;;0.50;;
34296;SDS011;20564;42.902;25.336;2023-04-03T11:42:22;1.05;;;0.50;;
34296;SDS011;20564;42.902;25.336;2023-04-03T11:45:17;0.95;;;0.32;;
34296;SDS011;20564;42.902;25.336;2023-04-03T11:50:48;0.77;;;0.35;;
34296;SDS011;20564;42.902;25.336;2023-04-03T11:58:17;1.75;;;0.70;;
34296;SDS011;20564;42.902;25.336;2023-04-03T12:09:01;1.45;;;0.70;;
34296;SDS011;20564;42.902;25.336;2023-04-03T12:11:31;1.83;;;0.60;;
34296;SDS011;20564;42.902;25.336;2023-04-03T12:16:42;0.50;;;0.30;;
34296;SDS011;20564;42.902;25.336;2023-04-03T12:24:28;1.17;;;0.60;;
34296;SDS011;20564;42.902;25.336;2023-04-03T12:46:23;2.80;;;0.80;;
34296;SDS011;20564;42.902;25.336;2023-04-03T12:48:54;2.58;;;0.75;;
34296;SDS011;20564;42.902;25.336;2023-04-03T12:54:26;3.42;;;0.95;;
34296;SDS011;20564;42.902;25.336;2023-04-03T12:57:15;2.70;;;1.00;;
34296;SDS011;20564;42.902;25.336;2023-04-03T12:59:47;3.05;;;1.10;;
34296;SDS011;20564;42.902;25.336;2023-04-03T13:02:32;1.40;;;0.88;;
34296;SDS011;20564;42.902;25.336;2023-04-03T13:05:18;1.88;;;0.70;;
34296;SDS011;20564;42.902;25.336;2023-04-03T13:07:52;3.17;;;0.70;;
34296;SDS011;20564;42.902;25.336;2023-04-03T13:10:25;2.85;;;1.00;;
34296;SDS011;20564;42.902;25.336;2023-04-03T13:12:53;4.40;;;0.98;;
34296;SDS011;20564;42.902;25.336;2023-04-03T13:15:27;2.38;;;0.50;;
34296;SDS011;20564;42.902;25.336;2023-04-03T13:17:56;5.20;;;1.50;;
34296;SDS011;20564;42.902;25.336;2023-04-03T13:20:25;5.82;;;2.00;;
34296;SDS011;20564;42.902;25.336;2023-04-03T13:23:05;8.27;;;2.45;;
34296;SDS011;20564;42.902;25.336;2023-04-03T13:25:40;5.28;;;1.45;;
34296;SDS011;20564;42.902;25.336;2023-04-03T13:28:18;24.90;;;3.67;;
34296;SDS011;20564;42.902;25.336;2023-04-03T13:33:37;8.32;;;2.17;;
34296;SDS011;20564;42.902;25.336;2023-04-03T13:36:08;6.97;;;2.10;;
34296;SDS011;20564;42.902;25.336;2023-04-03T13:38:44;10.30;;;3.17;;
34296;SDS011;20564;42.902;25.336;2023-04-03T13:41:23;7.90;;;2.20;;
34296;SDS011;20564;42.902;25.336;2023-04-03T13:44:14;4.18;;;1.08;;
34296;SDS011;20564;42.902;25.336;2023-04-03T13:46:50;3.92;;;1.38;;
34296;SDS011;20564;42.902;25.336;2023-04-03T13:51:55;1.20;;;0.70;;
34296;SDS011;20564;42.902;25.336;2023-04-03T13:54:34;1.30;;;0.63;;
34296;SDS011;20564;42.902;25.336;2023-04-03T13:57:10;1.23;;;0.60;;
34296;SDS011;20564;42.902;25.336;2023-04-03T13:59:40;6.07;;;1.77;;
34296;SDS011;20564;42.902;25.336;2023-04-03T14:02:15;15.40;;;4.03;;
34296;SDS011;20564;42.902;25.336;2023-04-03T14:04:53;11.45;;;2.85;;
34296;SDS011;20564;42.902;25.336;2023-04-03T14:07:24;8.23;;;1.98;;
34296;SDS011;20564;42.902;25.336;2023-04-03T14:09:53;6.07;;;1.90;;
34296;SDS011;20564;42.902;25.336;2023-04-03T14:12:35;3.63;;;1.60;;
34296;SDS011;20564;42.902;25.336;2023-04-03T14:15:16;11.35;;;3.85;;
34296;SDS011;20564;42.902;25.336;2023-04-03T14:17:46;10.02;;;2.92;;
34296;SDS011;20564;42.902;25.336;2023-04-03T14:20:17;5.57;;;1.95;;
34296;SDS011;20564;42.902;25.336;2023-04-03T14:22:48;6.78;;;2.00;;
34296;SDS011;20564;42.902;25.336;2023-04-03T14:25:21;5.90;;;1.95;;
34296;SDS011;20564;42.902;25.336;2023-04-03T14:27:54;6.75;;;2.30;;
34296;SDS011;20564;42.902;25.336;2023-04-03T14:30:30;9.02;;;3.10;;
34296;SDS011;20564;42.902;25.336;2023-04-03T14:32:58;6.90;;;2.25;;
34296;SDS011;20564;42.902;25.336;2023-04-03T14:35:37;4.07;;;1.75;;
34296;SDS011;20564;42.902;25.336;2023-04-03T14:38:28;3.65;;;1.42;;
34296;SDS011;20564;42.902;25.336;2023-04-03T14:41:06;5.43;;;1.50;;
34296;SDS011;20564;42.902;25.336;2023-04-03T14:43:42;3.40;;;1.08;;
34296;SDS011;20564;42.902;25.336;2023-04-03T14:46:29;2.53;;;0.75;;
34296;SDS011;20564;42.902;25.336;2023-04-03T14:49:23;7.65;;;1.85;;
34296;SDS011;20564;42.902;25.336;2023-04-03T14:52:04;2.97;;;1.05;;
34296;SDS011;20564;42.902;25.336;2023-04-03T14:55:38;5.25;;;1.25;;
34296;SDS011;20564;42.902;25.336;2023-04-03T14:58:30;10.40;;;3.67;;
34296;SDS011;20564;42.902;25.336;2023-04-03T15:01:01;9.00;;;3.00;;
34296;SDS011;20564;42.902;25.336;2023-04-03T15:03:37;9.02;;;2.47;;
34296;SDS011;20564;42.902;25.336;2023-04-03T15:06:12;9.48;;;2.78;;
34296;SDS011;20564;42.902;25.336;2023-04-03T15:08:45;10.70;;;2.90;;
34296;SDS011;20564;42.902;25.336;2023-04-03T15:11:17;7.93;;;2.08;;
34296;SDS011;20564;42.902;25.336;2023-04-03T15:13:44;7.47;;;2.28;;
34296;SDS011;20564;42.902;25.336;2023-04-03T15:16:16;6.82;;;2.40;;
34296;SDS011;20564;42.902;25.336;2023-04-03T15:18:47;12.18;;;4.00;;
34296;SDS011;20564;42.902;25.336;2023-04-03T15:21:17;13.07;;;4.57;;
34296;SDS011;20564;42.902;25.336;2023-04-03T15:23:51;11.55;;;3.92;;
34296;SDS011;20564;42.902;25.336;2023-04-03T15:26:33;9.68;;;3.22;;
34296;SDS011;20564;42.902;25.336;2023-04-03T15:29:07;10.88;;;3.45;;
34296;SDS011;20564;42.902;25.336;2023-04-03T15:31:42;11.48;;;4.00;;
34296;SDS011;20564;42.902;25.336;2023-04-03T15:34:13;7.45;;;2.33;;
34296;SDS011;20564;42.902;25.336;2023-04-03T15:36:49;6.15;;;2.13;;
34296;SDS011;20564;42.902;25.336;2023-04-03T15:39:32;6.00;;;1.98;;
34296;SDS011;20564;42.902;25.336;2023-04-03T15:42:06;3.78;;;1.60;;
34296;SDS011;20564;42.902;25.336;2023-04-03T15:44:33;4.53;;;1.60;;
34296;SDS011;20564;42.902;25.336;2023-04-03T15:47:02;4.68;;;1.60;;
34296;SDS011;20564;42.902;25.336;2023-04-03T15:49:33;2.33;;;1.20;;
34296;SDS011;20564;42.902;25.336;2023-04-03T15:52:10;2.17;;;1.02;;
34296;SDS011;20564;42.902;25.336;2023-04-03T15:54:57;4.50;;;1.40;;
34296;SDS011;20564;42.902;25.336;2023-04-03T15:57:45;6.15;;;1.48;;
34296;SDS011;20564;42.902;25.336;2023-04-03T16:03:11;3.83;;;1.38;;
34296;SDS011;20564;42.902;25.336;2023-04-03T16:05:43;10.98;;;3.05;;
34296;SDS011;20564;42.902;25.336;2023-04-03T16:08:25;11.63;;;3.90;;
34296;SDS011;20564;42.902;25.336;2023-04-03T16:11:17;10.95;;;3.40;;
34296;SDS011;20564;42.902;25.336;2023-04-03T16:13:54;12.87;;;3.47;;
34296;SDS011;20564;42.902;25.336;2023-04-03T16:16:32;11.60;;;3.97;;
34296;SDS011;20564;42.902;25.336;2023-04-03T16:19:06;11.75;;;3.95;;
34296;SDS011;20564;42.902;25.336;2023-04-03T16:21:38;11.07;;;3.78;;
34296;SDS011;20564;42.902;25.336;2023-04-03T16:24:10;10.05;;;3.08;;
34296;SDS011;20564;42.902;25.336;2023-04-03T16:26:44;8.85;;;3.25;;
34296;SDS011;20564;42.902;25.336;2023-04-03T16:29:22;5.38;;;2.30;;
34296;SDS011;20564;42.902;25.336;2023-04-03T16:32:11;5.70;;;1.98;;
34296;SDS011;20564;42.902;25.336;2023-04-03T16:34:39;10.35;;;3.63;;
34296;SDS011;20564;42.902;25.336;2023-04-03T16:37:07;9.18;;;3.40;;
34296;SDS011;20564;42.902;25.336;2023-04-03T16:39:35;19.80;;;6.47;;
34296;SDS011;20564;42.902;25.336;2023-04-03T16:42:02;18.03;;;6.00;;
34296;SDS011;20564;42.902;25.336;2023-04-03T16:44:31;10.00;;;3.42;;
34296;SDS011;20564;42.902;25.336;2023-04-03T16:47:00;8.40;;;2.60;;
34296;SDS011;20564;42.902;25.336;2023-04-03T16:53:19;4.20;;;1.88;;
34296;SDS011;20564;42.902;25.336;2023-04-03T16:55:53;5.03;;;1.52;;
34296;SDS011;20564;42.902;25.336;2023-04-03T16:58:32;4.18;;;1.50;;
34296;SDS011;20564;42.902;25.336;2023-04-03T17:01:33;4.82;;;1.50;;
34296;SDS011;20564;42.902;25.336;2023-04-03T17:04:10;3.00;;;1.48;;
34296;SDS011;20564;42.902;25.336;2023-04-03T17:06:48;5.40;;;1.45;;
34296;SDS011;20564;42.902;25.336;2023-04-03T17:09:52;7.95;;;2.20;;
34296;SDS011;20564;42.902;25.336;2023-04-03T17:12:40;5.80;;;2.30;;
34296;SDS011;20564;42.902;25.336;2023-04-03T17:18:31;4.97;;;1.87;;
34296;SDS011;20564;42.902;25.336;2023-04-03T17:21:12;5.25;;;1.90;;
34296;SDS011;20564;42.902;25.336;2023-04-03T17:24:24;13.93;;;4.18;;